sensor_id;sensor_type;location;lat;lon;timestamp;pressure;altitude;pressure_sealevel;temperature;humidity
69842;BME280;57138;51.326;-0.068;2023-08-20T00:02:19;100204.38;;;15.89;91.94
69842;BME280;57138;51.326;-0.068;2023-08-20T00:04:48;100192.00;;;15.81;92.17
69842;BME280;57138;51.326;-0.068;2023-08-20T00:07:14;100179.88;;;15.72;92.24
69842;BME280;57138;51.326;-0.068;2023-08-20T00:09:41;100216.44;;;15.87;92.18
69842;BME280;57138;51.326;-0.068;2023-08-20T00:12:07;100184.41;;;15.72;92.33
69842;BME280;57138;51.326;-0.068;2023-08-20T00:15:11;100206.31;;;15.82;92.53
69842;BME280;57138;51.326;-0.068;2023-08-20T00:17:39;100193.34;;;15.72;92.11
69842;BME280;57138;51.326;-0.068;2023-08-20T00:20:06;100202.19;;;15.79;92.40
69842;BME280;57138;51.326;-0.068;2023-08-20T00:22:39;100204.31;;;15.77;91.88
69842;BME280;57138;51.326;-0.068;2023-08-20T00:25:05;100199.09;;;15.76;92.08
69842;BME280;57138;51.326;-0.068;2023-08-20T00:27:32;100185.31;;;15.66;92.25
69842;BME280;57138;51.326;-0.068;2023-08-20T00:29:57;100189.44;;;15.68;92.16
69842;BME280;57138;51.326;-0.068;2023-08-20T00:32:23;100194.38;;;15.71;92.10
69842;BME280;57138;51.326;-0.068;2023-08-20T00:34:48;100188.84;;;15.66;92.40
69842;BME280;57138;51.326;-0.068;2023-08-20T00:37:14;100201.44;;;15.72;92.12
69842;BME280;57138;51.326;-0.068;2023-08-20T00:39:40;100186.59;;;15.63;92.60
69842;BME280;57138;51.326;-0.068;2023-08-20T00:42:05;100195.28;;;15.65;92.30
69842;BME280;57138;51.326;-0.068;2023-08-20T00:44:32;100203.50;;;15.70;91.97
69842;BME280;57138;51.326;-0.068;2023-08-20T00:46:59;100186.41;;;15.58;91.90
69842;BME280;57138;51.326;-0.068;2023-08-20T00:49:25;100199.44;;;15.61;91.62
69842;BME280;57138;51.326;-0.068;2023-08-20T00:51:51;100212.31;;;15.59;91.70
69842;BME280;57138;51.326;-0.068;2023-08-20T00:54:17;100225.94;;;15.64;91.79
69842;BME280;57138;51.326;-0.068;2023-08-20T00:56:43;100210.22;;;15.61;91.95
69842;BME280;57138;51.326;-0.068;2023-08-20T00:59:09;100223.88;;;15.66;91.80
69842;BME280;57138;51.326;-0.068;2023-08-20T01:01:36;100210.28;;;15.54;91.28
69842;BME280;57138;51.326;-0.068;2023-08-20T01:04:01;100213.66;;;15.50;91.49
69842;BME280;57138;51.326;-0.068;2023-08-20T01:09:22;100217.56;;;15.54;91.40
69842;BME280;57138;51.326;-0.068;2023-08-20T01:11:55;100234.31;;;15.56;92.00
69842;BME280;57138;51.326;-0.068;2023-08-20T01:14:21;100243.88;;;15.52;91.79
69842;BME280;57138;51.326;-0.068;2023-08-20T01:16:46;100223.44;;;15.44;92.19
69842;BME280;57138;51.326;-0.068;2023-08-20T01:19:17;100215.84;;;15.34;92.41
69842;BME280;57138;51.326;-0.068;2023-08-20T01:27:28;100252.25;;;15.43;93.64
69842;BME280;57138;51.326;-0.068;2023-08-20T01:30:01;100240.09;;;15.34;94.79
69842;BME280;57138;51.326;-0.068;2023-08-20T01:32:28;100235.53;;;15.35;95.31
69842;BME280;57138;51.326;-0.068;2023-08-20T01:34:54;100246.88;;;15.43;96.09
69842;BME280;57138;51.326;-0.068;2023-08-20T01:37:20;100240.69;;;15.36;95.90
69842;BME280;57138;51.326;-0.068;2023-08-20T01:39:45;100229.16;;;15.29;95.93
69842;BME280;57138;51.326;-0.068;2023-08-20T01:42:11;100236.97;;;15.37;96.02
69842;BME280;57138;51.326;-0.068;2023-08-20T01:44:36;100228.72;;;15.32;96.43
69842;BME280;57138;51.326;-0.068;2023-08-20T01:47:01;100262.97;;;15.50;96.52
69842;BME280;57138;51.326;-0.068;2023-08-20T01:49:27;100258.56;;;15.56;96.43
69842;BME280;57138;51.326;-0.068;2023-08-20T01:51:52;100251.38;;;15.50;97.51
69842;BME280;57138;51.326;-0.068;2023-08-20T01:54:17;100241.09;;;15.40;97.91
69842;BME280;57138;51.326;-0.068;2023-08-20T01:56:43;100260.91;;;15.52;97.85
69842;BME280;57138;51.326;-0.068;2023-08-20T01:59:08;100265.63;;;15.57;97.86
69842;BME280;57138;51.326;-0.068;2023-08-20T02:01:34;100261.88;;;15.58;98.28
69842;BME280;57138;51.326;-0.068;2023-08-20T02:03:59;100266.66;;;15.56;97.68
69842;BME280;57138;51.326;-0.068;2023-08-20T02:06:25;100270.78;;;15.58;97.76
69842;BME280;57138;51.326;-0.068;2023-08-20T02:08:50;100236.53;;;15.40;97.12
69842;BME280;57138;51.326;-0.068;2023-08-20T02:11:15;100250.16;;;15.45;97.51
69842;BME280;57138;51.326;-0.068;2023-08-20T02:13:41;100241.47;;;15.43;97.31
69842;BME280;57138;51.326;-0.068;2023-08-20T02:16:06;100250.38;;;15.44;96.89
69842;BME280;57138;51.326;-0.068;2023-08-20T02:18:32;100270.25;;;15.50;96.92
69842;BME280;57138;51.326;-0.068;2023-08-20T02:20:57;100270.09;;;15.44;97.09
69842;BME280;57138;51.326;-0.068;2023-08-20T02:23:23;100270.53;;;15.41;96.99
69842;BME280;57138;51.326;-0.068;2023-08-20T02:25:48;100262.69;;;15.33;97.33
69842;BME280;57138;51.326;-0.068;2023-08-20T02:28:17;100264.34;;;15.34;97.63
69842;BME280;57138;51.326;-0.068;2023-08-20T02:30:44;100272.25;;;15.29;97.48
69842;BME280;57138;51.326;-0.068;2023-08-20T02:33:10;100257.78;;;15.23;97.12
69842;BME280;57138;51.326;-0.068;2023-08-20T02:35:39;100272.69;;;15.26;97.23
69842;BME280;57138;51.326;-0.068;2023-08-20T02:38:05;100262.78;;;15.20;97.33
69842;BME280;57138;51.326;-0.068;2023-08-20T02:40:31;100269.22;;;15.19;98.27
69842;BME280;57138;51.326;-0.068;2023-08-20T02:42:56;100270.06;;;15.19;98.22
69842;BME280;57138;51.326;-0.068;2023-08-20T02:45:22;100259.97;;;15.08;98.15
69842;BME280;57138;51.326;-0.068;2023-08-20T02:47:48;100272.34;;;15.16;98.90
69842;BME280;57138;51.326;-0.068;2023-08-20T02:50:13;100255.84;;;15.05;99.04
69842;BME280;57138;51.326;-0.068;2023-08-20T02:52:39;100255.00;;;15.05;99.31
69842;BME280;57138;51.326;-0.068;2023-08-20T02:55:04;100259.59;;;15.04;98.74
69842;BME280;57138;51.326;-0.068;2023-08-20T02:57:30;100261.25;;;15.05;99.19
69842;BME280;57138;51.326;-0.068;2023-08-20T02:59:56;100281.06;;;15.18;99.09
69842;BME280;57138;51.326;-0.068;2023-08-20T03:02:22;100264.69;;;15.13;99.58
69842;BME280;57138;51.326;-0.068;2023-08-20T03:04:47;100268.03;;;15.15;99.71
69842;BME280;57138;51.326;-0.068;2023-08-20T03:07:12;100260.75;;;15.15;99.62
69842;BME280;57138;51.326;-0.068;2023-08-20T03:09:38;100266.53;;;15.19;99.78
69842;BME280;57138;51.326;-0.068;2023-08-20T03:12:03;100275.22;;;15.21;99.91
69842;BME280;57138;51.326;-0.068;2023-08-20T03:14:29;100276.44;;;15.25;99.78
69842;BME280;57138;51.326;-0.068;2023-08-20T03:16:54;100279.91;;;15.32;99.31
69842;BME280;57138;51.326;-0.068;2023-08-20T03:19:20;100289.19;;;15.36;99.79
69842;BME280;57138;51.326;-0.068;2023-08-20T03:21:45;100274.13;;;15.28;99.79
69842;BME280;57138;51.326;-0.068;2023-08-20T03:24:10;100283.19;;;15.34;99.63
69842;BME280;57138;51.326;-0.068;2023-08-20T03:26:36;100270.59;;;15.28;99.69
69842;BME280;57138;51.326;-0.068;2023-08-20T03:29:01;100282.50;;;15.45;99.80
69842;BME280;57138;51.326;-0.068;2023-08-20T03:31:28;100279.63;;;15.40;99.92
69842;BME280;57138;51.326;-0.068;2023-08-20T03:33:53;100297.78;;;15.52;99.49
69842;BME280;57138;51.326;-0.068;2023-08-20T03:36:19;100289.09;;;15.50;99.41
69842;BME280;57138;51.326;-0.068;2023-08-20T03:38:44;100299.00;;;15.56;99.60
69842;BME280;57138;51.326;-0.068;2023-08-20T03:41:09;100292.78;;;15.55;99.82
69842;BME280;57138;51.326;-0.068;2023-08-20T03:43:35;100280.84;;;15.44;99.57
69842;BME280;57138;51.326;-0.068;2023-08-20T03:46:01;100293.47;;;15.51;99.38
69842;BME280;57138;51.326;-0.068;2023-08-20T03:48:26;100296.75;;;15.53;99.41
69842;BME280;57138;51.326;-0.068;2023-08-20T03:50:51;100294.50;;;15.50;99.09
69842;BME280;57138;51.326;-0.068;2023-08-20T03:53:17;100235.06;;;15.13;99.27
69842;BME280;57138;51.326;-0.068;2023-08-20T03:55:48;100289.81;;;15.38;98.75
69842;BME280;57138;51.326;-0.068;2023-08-20T03:58:13;100285.31;;;15.32;98.39
69842;BME280;57138;51.326;-0.068;2023-08-20T04:00:38;100298.34;;;15.35;98.92
69842;BME280;57138;51.326;-0.068;2023-08-20T04:03:04;100296.06;;;15.32;98.83
69842;BME280;57138;51.326;-0.068;2023-08-20T04:05:29;100300.03;;;15.30;99.07
69842;BME280;57138;51.326;-0.068;2023-08-20T04:08:00;100294.47;;;15.24;98.81
69842;BME280;57138;51.326;-0.068;2023-08-20T04:10:25;100281.47;;;15.15;98.49
69842;BME280;57138;51.326;-0.068;2023-08-20T04:12:52;100283.97;;;15.16;98.56
69842;BME280;57138;51.326;-0.068;2023-08-20T04:15:18;100305.28;;;15.18;98.98
69842;BME280;57138;51.326;-0.068;2023-08-20T04:17:43;100308.41;;;15.15;99.01
69842;BME280;57138;51.326;-0.068;2023-08-20T04:20:09;100272.91;;;14.92;98.33
69842;BME280;57138;51.326;-0.068;2023-08-20T04:22:34;100287.38;;;14.98;98.68
69842;BME280;57138;51.326;-0.068;2023-08-20T04:25:00;100292.38;;;14.95;98.46
69842;BME280;57138;51.326;-0.068;2023-08-20T04:27:25;100309.09;;;15.03;99.03
69842;BME280;57138;51.326;-0.068;2023-08-20T04:29:50;100304.78;;;14.96;99.05
69842;BME280;57138;51.326;-0.068;2023-08-20T04:32:16;100313.25;;;14.99;99.46
69842;BME280;57138;51.326;-0.068;2023-08-20T04:34:41;100308.31;;;14.89;99.60
69842;BME280;57138;51.326;-0.068;2023-08-20T04:37:07;100300.69;;;14.86;99.44
69842;BME280;57138;51.326;-0.068;2023-08-20T04:39:32;100311.88;;;14.90;99.90
69842;BME280;57138;51.326;-0.068;2023-08-20T04:41:58;100305.47;;;14.84;99.68
69842;BME280;57138;51.326;-0.068;2023-08-20T04:44:25;100325.91;;;14.92;99.89
69842;BME280;57138;51.326;-0.068;2023-08-20T04:46:50;100318.09;;;14.84;100.00
69842;BME280;57138;51.326;-0.068;2023-08-20T04:49:16;100311.06;;;14.83;100.00
69842;BME280;57138;51.326;-0.068;2023-08-20T04:51:41;100326.94;;;14.91;100.00
69842;BME280;57138;51.326;-0.068;2023-08-20T04:54:07;100316.00;;;14.86;100.00
69842;BME280;57138;51.326;-0.068;2023-08-20T04:56:32;100323.88;;;14.87;100.00
69842;BME280;57138;51.326;-0.068;2023-08-20T04:58:58;100337.50;;;14.99;100.00
69842;BME280;57138;51.326;-0.068;2023-08-20T05:01:23;100326.75;;;14.92;100.00
69842;BME280;57138;51.326;-0.068;2023-08-20T05:03:48;100337.06;;;15.02;100.00
69842;BME280;57138;51.326;-0.068;2023-08-20T05:06:14;100340.38;;;15.04;100.00
69842;BME280;57138;51.326;-0.068;2023-08-20T05:08:39;100329.22;;;15.01;100.00
69842;BME280;57138;51.326;-0.068;2023-08-20T05:11:05;100320.53;;;14.92;100.00
69842;BME280;57138;51.326;-0.068;2023-08-20T05:13:30;100332.28;;;15.04;100.00
69842;BME280;57138;51.326;-0.068;2023-08-20T05:15:56;100350.88;;;15.13;100.00
69842;BME280;57138;51.326;-0.068;2023-08-20T05:18:21;100331.25;;;15.05;100.00
69842;BME280;57138;51.326;-0.068;2023-08-20T05:20:47;100353.13;;;15.16;100.00
69842;BME280;57138;51.326;-0.068;2023-08-20T05:23:12;100341.59;;;15.08;100.00
69842;BME280;57138;51.326;-0.068;2023-08-20T05:25:37;100354.81;;;15.17;100.00
69842;BME280;57138;51.326;-0.068;2023-08-20T05:28:03;100358.75;;;15.14;100.00
69842;BME280;57138;51.326;-0.068;2023-08-20T05:30:28;100345.31;;;15.07;100.00
69842;BME280;57138;51.326;-0.068;2023-08-20T05:32:54;100352.53;;;15.14;100.00
69842;BME280;57138;51.326;-0.068;2023-08-20T05:35:19;100329.22;;;15.01;100.00
69842;BME280;57138;51.326;-0.068;2023-08-20T05:37:44;100365.31;;;15.25;100.00
69842;BME280;57138;51.326;-0.068;2023-08-20T05:40:10;100360.56;;;15.27;100.00
69842;BME280;57138;51.326;-0.068;2023-08-20T05:42:35;100366.72;;;15.34;100.00
69842;BME280;57138;51.326;-0.068;2023-08-20T05:45:01;100370.00;;;15.36;100.00
69842;BME280;57138;51.326;-0.068;2023-08-20T05:47:26;100358.47;;;15.29;100.00
69842;BME280;57138;51.326;-0.068;2023-08-20T05:49:51;100377.88;;;15.38;100.00
69842;BME280;57138;51.326;-0.068;2023-08-20T05:52:17;100376.03;;;15.38;100.00
69842;BME280;57138;51.326;-0.068;2023-08-20T05:54:42;100373.34;;;15.38;100.00
69842;BME280;57138;51.326;-0.068;2023-08-20T05:57:08;100376.63;;;15.40;100.00
69842;BME280;57138;51.326;-0.068;2023-08-20T05:59:33;100382.81;;;15.48;100.00
69842;BME280;57138;51.326;-0.068;2023-08-20T06:02:01;100353.06;;;15.29;100.00
69842;BME280;57138;51.326;-0.068;2023-08-20T06:04:27;100383.34;;;15.56;100.00
69842;BME280;57138;51.326;-0.068;2023-08-20T06:06:52;100386.63;;;15.65;100.00
69842;BME280;57138;51.326;-0.068;2023-08-20T06:09:17;100385.16;;;15.69;100.00
69842;BME280;57138;51.326;-0.068;2023-08-20T06:11:43;100355.00;;;15.54;100.00
69842;BME280;57138;51.326;-0.068;2023-08-20T06:14:09;100386.34;;;15.73;100.00
69842;BME280;57138;51.326;-0.068;2023-08-20T06:16:34;100378.53;;;15.65;100.00
69842;BME280;57138;51.326;-0.068;2023-08-20T06:18:59;100393.84;;;15.71;100.00
69842;BME280;57138;51.326;-0.068;2023-08-20T06:21:25;100347.59;;;15.42;100.00
69842;BME280;57138;51.326;-0.068;2023-08-20T06:23:50;100382.91;;;15.66;100.00
69842;BME280;57138;51.326;-0.068;2023-08-20T06:26:16;100385.97;;;15.70;100.00
69842;BME280;57138;51.326;-0.068;2023-08-20T06:28:41;100385.75;;;15.71;100.00
69842;BME280;57138;51.326;-0.068;2023-08-20T06:31:07;100377.69;;;15.71;100.00
69842;BME280;57138;51.326;-0.068;2023-08-20T06:33:32;100374.94;;;15.78;100.00
69842;BME280;57138;51.326;-0.068;2023-08-20T06:35:57;100399.28;;;15.96;100.00
69842;BME280;57138;51.326;-0.068;2023-08-20T06:38:23;100373.75;;;15.99;99.83
69842;BME280;57138;51.326;-0.068;2023-08-20T06:40:48;100390.66;;;16.13;99.45
69842;BME280;57138;51.326;-0.068;2023-08-20T06:43:13;100390.53;;;16.26;98.89
69842;BME280;57138;51.326;-0.068;2023-08-20T06:45:39;100383.50;;;16.25;98.17
69842;BME280;57138;51.326;-0.068;2023-08-20T06:48:04;100369.59;;;16.22;98.27
69842;BME280;57138;51.326;-0.068;2023-08-20T06:50:30;100398.28;;;16.41;98.02
69842;BME280;57138;51.326;-0.068;2023-08-20T06:52:56;100398.56;;;16.51;97.52
69842;BME280;57138;51.326;-0.068;2023-08-20T06:55:21;100414.66;;;16.65;97.19
69842;BME280;57138;51.326;-0.068;2023-08-20T06:57:46;100416.13;;;16.79;97.23
69842;BME280;57138;51.326;-0.068;2023-08-20T07:00:12;100408.03;;;16.79;96.48
69842;BME280;57138;51.326;-0.068;2023-08-20T07:02:37;100418.06;;;16.97;96.43
69842;BME280;57138;51.326;-0.068;2023-08-20T07:05:03;100408.81;;;17.05;96.15
69842;BME280;57138;51.326;-0.068;2023-08-20T07:07:29;100405.56;;;17.15;93.94
69842;BME280;57138;51.326;-0.068;2023-08-20T07:09:54;100421.41;;;17.30;94.33
69842;BME280;57138;51.326;-0.068;2023-08-20T07:12:20;100420.25;;;17.37;94.08
69842;BME280;57138;51.326;-0.068;2023-08-20T07:14:45;100411.22;;;17.43;93.08
69842;BME280;57138;51.326;-0.068;2023-08-20T07:17:10;100394.91;;;17.50;92.01
69842;BME280;57138;51.326;-0.068;2023-08-20T07:19:36;100416.22;;;17.58;90.64
69842;BME280;57138;51.326;-0.068;2023-08-20T07:22:02;100402.94;;;17.57;89.83
69842;BME280;57138;51.326;-0.068;2023-08-20T07:24:27;100385.03;;;17.44;90.27
69842;BME280;57138;51.326;-0.068;2023-08-20T07:26:54;100398.03;;;17.66;89.67
69842;BME280;57138;51.326;-0.068;2023-08-20T07:29:25;100387.06;;;17.60;88.81
69842;BME280;57138;51.326;-0.068;2023-08-20T07:31:50;100409.47;;;17.79;88.88
69842;BME280;57138;51.326;-0.068;2023-08-20T07:34:16;100409.97;;;17.88;87.68
69842;BME280;57138;51.326;-0.068;2023-08-20T07:36:41;100412.75;;;17.82;86.81
69842;BME280;57138;51.326;-0.068;2023-08-20T07:39:07;100423.56;;;17.82;87.69
69842;BME280;57138;51.326;-0.068;2023-08-20T07:41:33;100416.97;;;17.77;87.60
69842;BME280;57138;51.326;-0.068;2023-08-20T07:43:59;100409.44;;;17.68;87.01
69842;BME280;57138;51.326;-0.068;2023-08-20T07:46:24;100419.66;;;17.66;86.62
69842;BME280;57138;51.326;-0.068;2023-08-20T07:48:50;100395.91;;;17.68;86.96
69842;BME280;57138;51.326;-0.068;2023-08-20T07:51:15;100397.81;;;17.79;86.46
69842;BME280;57138;51.326;-0.068;2023-08-20T07:53:41;100421.41;;;18.02;85.99
69842;BME280;57138;51.326;-0.068;2023-08-20T07:56:06;100415.19;;;18.13;86.12
69842;BME280;57138;51.326;-0.068;2023-08-20T07:58:31;100407.09;;;18.25;85.11
69842;BME280;57138;51.326;-0.068;2023-08-20T08:00:57;100427.91;;;18.48;85.21
69842;BME280;57138;51.326;-0.068;2023-08-20T08:03:25;100430.13;;;18.63;84.26
69842;BME280;57138;51.326;-0.068;2023-08-20T08:05:52;100409.31;;;18.64;83.61
69842;BME280;57138;51.326;-0.068;2023-08-20T08:08:18;100432.69;;;18.82;83.25
69842;BME280;57138;51.326;-0.068;2023-08-20T08:10:44;100435.66;;;18.92;81.87
69842;BME280;57138;51.326;-0.068;2023-08-20T08:13:15;100429.19;;;18.93;82.00
69842;BME280;57138;51.326;-0.068;2023-08-20T08:15:41;100450.22;;;19.15;81.54
69842;BME280;57138;51.326;-0.068;2023-08-20T08:18:07;100424.38;;;19.24;81.51
69842;BME280;57138;51.326;-0.068;2023-08-20T08:20:33;100446.66;;;19.55;80.24
69842;BME280;57138;51.326;-0.068;2023-08-20T08:23:00;100446.88;;;19.65;79.42
69842;BME280;57138;51.326;-0.068;2023-08-20T08:25:26;100427.75;;;19.60;78.94
69842;BME280;57138;51.326;-0.068;2023-08-20T08:27:52;100437.31;;;19.63;79.70
69842;BME280;57138;51.326;-0.068;2023-08-20T08:30:17;100443.06;;;19.66;80.05
69842;BME280;57138;51.326;-0.068;2023-08-20T08:32:43;100434.28;;;19.59;79.27
69842;BME280;57138;51.326;-0.068;2023-08-20T08:35:08;100446.22;;;19.75;79.10
69842;BME280;57138;51.326;-0.068;2023-08-20T08:37:34;100441.16;;;19.79;78.02
69842;BME280;57138;51.326;-0.068;2023-08-20T08:39:59;100432.56;;;19.70;77.38
69842;BME280;57138;51.326;-0.068;2023-08-20T08:42:25;100445.47;;;19.91;77.34
69842;BME280;57138;51.326;-0.068;2023-08-20T08:44:51;100445.31;;;19.98;76.79
69842;BME280;57138;51.326;-0.068;2023-08-20T08:47:18;100452.59;;;20.15;76.93
69842;BME280;57138;51.326;-0.068;2023-08-20T08:49:45;100446.13;;;20.16;76.70
69842;BME280;57138;51.326;-0.068;2023-08-20T08:52:11;100454.50;;;20.31;76.84
69842;BME280;57138;51.326;-0.068;2023-08-20T08:54:37;100452.03;;;20.46;76.02
69842;BME280;57138;51.326;-0.068;2023-08-20T08:57:04;100454.31;;;20.55;75.36
69842;BME280;57138;51.326;-0.068;2023-08-20T08:59:30;100444.56;;;20.54;74.71
69842;BME280;57138;51.326;-0.068;2023-08-20T09:01:55;100431.78;;;20.54;73.88
69842;BME280;57138;51.326;-0.068;2023-08-20T09:04:22;100459.44;;;20.68;72.29
69842;BME280;57138;51.326;-0.068;2023-08-20T09:06:52;100451.06;;;20.70;72.74
69842;BME280;57138;51.326;-0.068;2023-08-20T09:09:20;100455.78;;;20.79;72.22
69842;BME280;57138;51.326;-0.068;2023-08-20T09:11:47;100448.72;;;20.78;70.46
69842;BME280;57138;51.326;-0.068;2023-08-20T09:14:27;100433.34;;;20.67;71.42
69842;BME280;57138;51.326;-0.068;2023-08-20T09:17:02;100442.47;;;20.61;71.27
69842;BME280;57138;51.326;-0.068;2023-08-20T09:19:29;100444.56;;;20.54;72.08
69842;BME280;57138;51.326;-0.068;2023-08-20T09:22:00;100453.19;;;20.51;73.05
69842;BME280;57138;51.326;-0.068;2023-08-20T09:24:34;100442.97;;;20.41;72.97
69842;BME280;57138;51.326;-0.068;2023-08-20T09:27:03;100444.63;;;20.42;73.12
69842;BME280;57138;51.326;-0.068;2023-08-20T09:29:32;100455.97;;;20.56;73.02
69842;BME280;57138;51.326;-0.068;2023-08-20T09:32:02;100456.78;;;20.73;73.44
69842;BME280;57138;51.326;-0.068;2023-08-20T09:34:38;100441.19;;;20.86;71.48
69842;BME280;57138;51.326;-0.068;2023-08-20T09:37:09;100456.06;;;21.00;71.15
69842;BME280;57138;51.326;-0.068;2023-08-20T09:39:35;100465.94;;;21.06;70.78
69842;BME280;57138;51.326;-0.068;2023-08-20T09:42:02;100454.84;;;21.13;71.66
69842;BME280;57138;51.326;-0.068;2023-08-20T09:44:35;100442.66;;;21.15;70.40
69842;BME280;57138;51.326;-0.068;2023-08-20T09:47:03;100449.84;;;21.27;70.12
69842;BME280;57138;51.326;-0.068;2023-08-20T09:49:35;100451.44;;;21.45;70.80
69842;BME280;57138;51.326;-0.068;2023-08-20T09:52:03;100451.88;;;21.59;69.91
69842;BME280;57138;51.326;-0.068;2023-08-20T09:57:23;100439.00;;;21.49;68.52
69842;BME280;57138;51.326;-0.068;2023-08-20T09:59:51;100444.03;;;21.40;68.79
69842;BME280;57138;51.326;-0.068;2023-08-20T10:02:17;100450.88;;;21.21;67.68
69842;BME280;57138;51.326;-0.068;2023-08-20T10:04:44;100449.63;;;21.06;68.68
69842;BME280;57138;51.326;-0.068;2023-08-20T10:07:11;100450.63;;;21.00;68.41
69842;BME280;57138;51.326;-0.068;2023-08-20T10:09:39;100449.63;;;21.06;68.37
69842;BME280;57138;51.326;-0.068;2023-08-20T10:12:06;100446.53;;;21.19;68.59
69842;BME280;57138;51.326;-0.068;2023-08-20T10:14:32;100436.44;;;21.42;68.35
69842;BME280;57138;51.326;-0.068;2023-08-20T10:16:57;100445.50;;;21.75;67.82
69842;BME280;57138;51.326;-0.068;2023-08-20T10:19:24;100450.03;;;21.92;67.78
69842;BME280;57138;51.326;-0.068;2023-08-20T10:21:52;100451.06;;;21.85;66.64
69842;BME280;57138;51.326;-0.068;2023-08-20T10:24:19;100451.47;;;21.72;65.80
69842;BME280;57138;51.326;-0.068;2023-08-20T10:26:48;100451.88;;;21.59;66.50
69842;BME280;57138;51.326;-0.068;2023-08-20T10:29:36;100449.94;;;21.54;67.06
69842;BME280;57138;51.326;-0.068;2023-08-20T10:32:10;100447.56;;;21.63;67.87
69842;BME280;57138;51.326;-0.068;2023-08-20T10:34:36;100460.63;;;21.88;66.32
69842;BME280;57138;51.326;-0.068;2023-08-20T10:37:15;100457.78;;;22.05;63.99
69842;BME280;57138;51.326;-0.068;2023-08-20T10:39:41;100452.66;;;22.14;64.86
69842;BME280;57138;51.326;-0.068;2023-08-20T10:42:25;100461.28;;;22.33;64.43
69842;BME280;57138;51.326;-0.068;2023-08-20T10:45:04;100454.25;;;22.42;63.18
69842;BME280;57138;51.326;-0.068;2023-08-20T10:47:44;100456.78;;;22.54;63.86
69842;BME280;57138;51.326;-0.068;2023-08-20T10:50:17;100462.03;;;22.66;63.27
69842;BME280;57138;51.326;-0.068;2023-08-20T10:52:54;100463.19;;;22.75;61.65
69842;BME280;57138;51.326;-0.068;2023-08-20T10:55:23;100445.69;;;22.66;61.83
69842;BME280;57138;51.326;-0.068;2023-08-20T10:57:58;100447.94;;;22.74;60.12
69842;BME280;57138;51.326;-0.068;2023-08-20T11:00:25;100458.59;;;22.86;60.55
69842;BME280;57138;51.326;-0.068;2023-08-20T11:02:52;100426.69;;;22.81;61.44
69842;BME280;57138;51.326;-0.068;2023-08-20T11:05:20;100422.34;;;22.85;60.56
69842;BME280;57138;51.326;-0.068;2023-08-20T11:07:47;100441.19;;;22.92;60.57
69842;BME280;57138;51.326;-0.068;2023-08-20T11:10:17;100445.91;;;23.07;60.49
69842;BME280;57138;51.326;-0.068;2023-08-20T11:12:45;100447.63;;;23.23;60.58
69842;BME280;57138;51.326;-0.068;2023-08-20T11:15:12;100447.66;;;23.28;60.69
69842;BME280;57138;51.326;-0.068;2023-08-20T11:17:57;100437.81;;;23.22;60.29
69842;BME280;57138;51.326;-0.068;2023-08-20T11:20:22;100433.97;;;23.13;60.21
69842;BME280;57138;51.326;-0.068;2023-08-20T11:22:48;100433.44;;;23.16;59.72
69842;BME280;57138;51.326;-0.068;2023-08-20T11:25:14;100423.53;;;23.05;60.17
69842;BME280;57138;51.326;-0.068;2023-08-20T11:27:43;100429.31;;;23.19;60.36
69842;BME280;57138;51.326;-0.068;2023-08-20T11:30:10;100437.25;;;23.20;60.00
69842;BME280;57138;51.326;-0.068;2023-08-20T11:32:37;100438.34;;;23.19;60.16
69842;BME280;57138;51.326;-0.068;2023-08-20T11:35:04;100423.50;;;22.94;59.76
69842;BME280;57138;51.326;-0.068;2023-08-20T11:37:29;100423.97;;;22.81;60.23
69842;BME280;57138;51.326;-0.068;2023-08-20T11:39:55;100429.38;;;22.71;60.50
69842;BME280;57138;51.326;-0.068;2023-08-20T11:42:20;100423.06;;;22.60;61.18
69842;BME280;57138;51.326;-0.068;2023-08-20T11:44:46;100411.03;;;22.56;62.04
69842;BME280;57138;51.326;-0.068;2023-08-20T11:47:16;100429.94;;;22.78;61.55
69842;BME280;57138;51.326;-0.068;2023-08-20T11:49:41;100419.16;;;22.98;61.01
69842;BME280;57138;51.326;-0.068;2023-08-20T11:52:07;100408.25;;;22.98;59.61
69842;BME280;57138;51.326;-0.068;2023-08-20T11:54:32;100407.66;;;22.96;59.71
69842;BME280;57138;51.326;-0.068;2023-08-20T11:57:05;100393.41;;;22.74;57.67
69842;BME280;57138;51.326;-0.068;2023-08-20T11:59:31;100416.84;;;22.75;58.33
69842;BME280;57138;51.326;-0.068;2023-08-20T12:01:58;100406.97;;;22.64;59.28
69842;BME280;57138;51.326;-0.068;2023-08-20T12:04:31;100427.47;;;22.76;58.09
69842;BME280;57138;51.326;-0.068;2023-08-20T12:07:09;100427.56;;;22.92;59.05
69842;BME280;57138;51.326;-0.068;2023-08-20T12:09:38;100430.16;;;23.19;58.62
69842;BME280;57138;51.326;-0.068;2023-08-20T12:12:05;100411.13;;;23.45;58.08
69842;BME280;57138;51.326;-0.068;2023-08-20T12:14:31;100405.72;;;23.76;56.02
69842;BME280;57138;51.326;-0.068;2023-08-20T12:16:56;100415.59;;;24.08;55.79
69842;BME280;57138;51.326;-0.068;2023-08-20T12:19:24;100407.66;;;24.21;54.96
69842;BME280;57138;51.326;-0.068;2023-08-20T12:21:49;100403.00;;;24.22;53.68
69842;BME280;57138;51.326;-0.068;2023-08-20T12:24:15;100419.94;;;24.19;54.53
69842;BME280;57138;51.326;-0.068;2023-08-20T12:26:40;100412.84;;;24.08;54.04
69842;BME280;57138;51.326;-0.068;2023-08-20T12:29:06;100403.84;;;23.86;54.01
69842;BME280;57138;51.326;-0.068;2023-08-20T12:31:32;100402.16;;;23.75;54.08
69842;BME280;57138;51.326;-0.068;2023-08-20T12:33:58;100399.16;;;23.61;54.90
69842;BME280;57138;51.326;-0.068;2023-08-20T12:36:23;100411.97;;;23.56;55.50
69842;BME280;57138;51.326;-0.068;2023-08-20T12:38:49;100412.78;;;23.51;56.23
69842;BME280;57138;51.326;-0.068;2023-08-20T12:41:14;100397.75;;;23.33;56.74
69842;BME280;57138;51.326;-0.068;2023-08-20T12:43:40;100431.03;;;23.40;57.66
69842;BME280;57138;51.326;-0.068;2023-08-20T12:46:06;100415.19;;;23.27;57.27
69842;BME280;57138;51.326;-0.068;2023-08-20T12:48:31;100409.97;;;23.20;57.90